createdAt,value
2022-10-22T00:04:35.450Z,15.90
2022-10-22T00:09:38.422Z,15.80
2022-10-22T00:14:40.838Z,15.80
2022-10-22T00:19:44.745Z,15.80
2022-10-22T00:24:47.097Z,15.80
2022-10-22T00:29:49.344Z,15.70
2022-10-22T00:34:53.273Z,15.60
2022-10-22T00:39:55.734Z,15.50
2022-10-22T00:45:06.708Z,15.50
2022-10-22T00:50:14.308Z,15.40
2022-10-22T00:55:17.595Z,15.30
2022-10-22T01:00:20.135Z,15.20
2022-10-22T01:05:27.505Z,15.20
2022-10-22T01:10:47.438Z,15.10
2022-10-22T01:15:59.299Z,15.10
2022-10-22T01:21:12.814Z,15.00
2022-10-22T01:26:25.940Z,15.00
2022-10-22T01:31:33.863Z,14.90
2022-10-22T01:36:37.857Z,14.90
2022-10-22T01:41:43.255Z,14.80
2022-10-22T01:46:51.106Z,14.90
2022-10-22T01:52:03.133Z,14.90
2022-10-22T01:57:13.781Z,14.90
2022-10-22T02:02:29.507Z,14.90
2022-10-22T02:07:36.236Z,14.90
2022-10-22T02:12:41.763Z,14.80
2022-10-22T02:17:47.430Z,14.80
2022-10-22T02:22:50.713Z,14.80
2022-10-22T02:28:02.413Z,14.80
2022-10-22T02:33:11.784Z,14.80
2022-10-22T02:38:15.293Z,14.80
2022-10-22T02:43:19.215Z,14.70
2022-10-22T02:48:22.934Z,14.70
2022-10-22T02:53:25.340Z,14.80
2022-10-22T02:58:27.673Z,14.80
2022-10-22T03:03:31.448Z,14.80
2022-10-22T03:08:33.709Z,14.80
2022-10-22T03:13:36.501Z,14.80
2022-10-22T03:18:40.135Z,14.80
2022-10-22T03:23:43.647Z,14.80
2022-10-22T03:28:46.127Z,14.80
2022-10-22T03:33:50.419Z,14.80
2022-10-22T03:38:52.836Z,14.80
2022-10-22T03:43:56.070Z,14.80
2022-10-22T03:48:59.776Z,14.80
2022-10-22T03:54:02.243Z,14.80
2022-10-22T03:59:04.724Z,14.80
2022-10-22T04:04:08.740Z,14.80
2022-10-22T04:09:11.034Z,14.80
2022-10-22T04:14:13.502Z,14.80
2022-10-22T04:19:17.523Z,14.80
2022-10-22T04:24:20.037Z,14.70
2022-10-22T04:29:22.248Z,14.70
2022-10-22T04:34:28.062Z,14.70
2022-10-22T04:39:30.529Z,14.70
2022-10-22T04:44:33.063Z,14.70
2022-10-22T04:49:36.719Z,14.60
2022-10-22T04:54:38.893Z,14.60
2022-10-22T04:59:41.203Z,14.50
2022-10-22T05:04:45.930Z,14.50
2022-10-22T05:09:48.155Z,14.50
2022-10-22T05:14:50.379Z,14.40
2022-10-22T05:19:54.192Z,14.40
2022-10-22T05:24:56.469Z,14.30
2022-10-22T05:29:58.667Z,14.20
2022-10-22T05:35:02.256Z,14.20
2022-10-22T05:40:19.259Z,14.10
2022-10-22T05:45:28.331Z,14.10
2022-10-22T05:50:32.115Z,14.20
2022-10-22T05:55:36.874Z,14.10
2022-10-22T06:00:39.168Z,14.20
2022-10-22T06:05:43.204Z,14.10
2022-10-22T06:10:45.682Z,14.10
2022-10-22T06:15:47.947Z,14.20
2022-10-22T06:20:51.828Z,14.20
2022-10-22T06:25:57.885Z,14.20
2022-10-22T06:31:01.333Z,14.20
2022-10-22T06:36:10.453Z,14.30
2022-10-22T06:41:14.895Z,14.40
2022-10-22T06:46:20.292Z,14.70
2022-10-22T06:51:24.715Z,15.20
2022-10-22T06:56:28.953Z,15.80
2022-10-22T07:01:33.330Z,16.40
2022-10-22T07:06:38.066Z,16.70
2022-10-22T07:11:42.354Z,17.00
2022-10-22T07:16:44.833Z,17.00
2022-10-22T07:21:48.693Z,16.80
2022-10-22T07:26:51.151Z,16.50
2022-10-22T07:31:53.520Z,16.30
2022-10-22T07:36:57.264Z,16.20
2022-10-22T07:41:59.479Z,16.10
2022-10-22T07:47:01.982Z,16.00
2022-10-22T07:52:07.654Z,16.10
2022-10-22T07:57:09.907Z,16.50
2022-10-22T08:02:12.548Z,17.30
2022-10-22T08:07:16.376Z,18.10
2022-10-22T08:12:19.230Z,18.50
2022-10-22T08:17:21.622Z,18.80
2022-10-22T08:22:25.528Z,19.50
2022-10-22T08:27:28.047Z,20.40
2022-10-22T08:32:30.271Z,21.10
2022-10-22T08:37:33.970Z,21.80
2022-10-22T08:43:06.158Z,22.10
2022-10-22T08:48:18.427Z,22.20
2022-10-22T08:53:29.554Z,22.20
2022-10-22T08:58:40.314Z,22.20
2022-10-22T09:03:51.038Z,22.40
2022-10-22T09:08:57.276Z,22.60
2022-10-22T09:14:01.460Z,23.10
2022-10-22T09:19:18.333Z,23.40
2022-10-22T09:24:29.583Z,23.40
2022-10-22T09:29:36.218Z,23.30
2022-10-22T09:34:39.130Z,22.90
2022-10-22T09:39:46.555Z,22.40
2022-10-22T09:44:54.051Z,22.00
2022-10-22T09:50:12.353Z,21.70
2022-10-22T09:55:19.056Z,21.50
2022-10-22T10:00:21.926Z,21.40
2022-10-22T10:05:30.159Z,21.20
2022-10-22T10:10:41.945Z,21.10
2022-10-22T10:15:51.035Z,21.10
2022-10-22T10:21:04.739Z,21.00
2022-10-22T10:26:15.343Z,21.30
2022-10-22T10:31:28.039Z,21.70
2022-10-22T10:36:40.035Z,22.10
2022-10-22T10:41:53.096Z,22.40
2022-10-22T10:47:02.863Z,22.40
2022-10-22T10:52:17.503Z,22.30
2022-10-22T10:57:36.295Z,22.10
2022-10-22T11:03:32.488Z,22.00
2022-10-22T11:08:39.050Z,22.10
2022-10-22T11:13:47.790Z,22.40
2022-10-22T11:18:56.892Z,22.60
2022-10-22T11:24:10.465Z,22.70
2022-10-22T11:29:19.690Z,22.70
2022-10-22T11:34:34.793Z,22.60
2022-10-22T11:39:43.418Z,22.40
2022-10-22T11:45:00.878Z,22.10
2022-10-22T11:50:19.762Z,21.80
2022-10-22T11:55:42.576Z,21.60
2022-10-22T12:00:50.208Z,21.40
2022-10-22T12:06:16.655Z,21.20
2022-10-22T12:11:23.902Z,21.00
2022-10-22T12:16:54.603Z,20.90
2022-10-22T12:22:00.881Z,20.70
2022-10-22T12:27:03.465Z,20.60
2022-10-22T12:32:07.391Z,20.40
2022-10-22T12:37:13.013Z,20.30
2022-10-22T12:42:18.064Z,20.10
2022-10-22T12:47:22.182Z,20.00
2022-10-22T12:52:24.552Z,20.00
2022-10-22T12:57:26.986Z,19.90
2022-10-22T13:02:30.905Z,19.90
2022-10-22T13:07:41.718Z,19.90
2022-10-22T13:12:48.935Z,19.80
2022-10-22T13:18:01.887Z,19.80
2022-10-22T13:23:05.793Z,19.80
2022-10-22T13:28:19.832Z,19.70
2022-10-22T13:33:27.621Z,19.70
2022-10-22T13:38:30.931Z,19.70
2022-10-22T13:43:33.257Z,19.60
2022-10-22T13:48:37.254Z,19.40
2022-10-22T13:53:39.656Z,19.40
2022-10-22T13:58:43.330Z,19.30
2022-10-22T14:03:48.135Z,19.10
2022-10-22T14:08:54.527Z,19.10
2022-10-22T14:13:56.856Z,19.20
2022-10-22T14:19:02.340Z,19.30
2022-10-22T14:24:07.203Z,19.30
2022-10-22T14:29:12.064Z,19.30
2022-10-22T14:34:17.141Z,19.40
2022-10-22T14:39:19.647Z,19.30
2022-10-22T14:44:22.176Z,19.30
2022-10-22T14:49:26.062Z,19.30
2022-10-22T14:54:28.593Z,19.40
2022-10-22T14:59:31.458Z,19.30
2022-10-22T15:04:35.472Z,19.40
2022-10-22T15:09:37.717Z,19.30
2022-10-22T15:14:39.926Z,19.30
2022-10-22T15:19:44.557Z,19.30
2022-10-22T15:24:46.975Z,19.20
2022-10-22T15:29:49.352Z,19.20
2022-10-22T15:34:54.382Z,19.10
2022-10-22T15:39:57.204Z,18.90
2022-10-22T15:44:59.667Z,18.90
2022-10-22T15:50:03.740Z,18.70
2022-10-22T15:55:07.213Z,18.70
2022-10-22T16:00:11.222Z,18.70
2022-10-22T16:05:15.354Z,18.60
2022-10-22T16:10:17.845Z,18.60
2022-10-22T16:15:20.235Z,18.50
2022-10-22T16:20:24.060Z,18.50
2022-10-22T16:25:26.370Z,18.40
2022-10-22T16:30:28.730Z,18.30
2022-10-22T16:35:32.745Z,18.20
2022-10-22T16:40:35.098Z,18.10
2022-10-22T16:45:37.433Z,18.00
2022-10-22T16:50:41.218Z,17.90
2022-10-22T16:55:43.774Z,17.80
2022-10-22T17:00:46.598Z,17.70
2022-10-22T17:05:50.359Z,17.60
2022-10-22T17:10:52.987Z,17.50
2022-10-22T17:16:02.125Z,17.40
2022-10-22T17:21:06.959Z,17.30
2022-10-22T17:26:13.849Z,17.20
2022-10-22T17:31:19.333Z,17.10
2022-10-22T17:36:24.411Z,17.10
2022-10-22T17:41:28.942Z,17.00
2022-10-22T17:46:32.095Z,16.90
2022-10-22T17:51:35.802Z,16.90
2022-10-22T17:56:38.778Z,16.80
2022-10-22T18:01:41.401Z,16.70
2022-10-22T18:06:46.267Z,16.60
2022-10-22T18:11:50.399Z,16.60
2022-10-22T18:16:53.187Z,16.40
2022-10-22T18:21:57.004Z,16.40
2022-10-22T18:26:59.352Z,16.30
2022-10-22T18:32:01.969Z,16.20
2022-10-22T18:37:06.115Z,16.10
2022-10-22T18:42:08.486Z,16.00
2022-10-22T18:47:10.872Z,16.00
2022-10-22T18:52:15.178Z,15.90
2022-10-22T18:57:17.797Z,15.80
2022-10-22T19:02:20.700Z,15.70
2022-10-22T19:07:24.504Z,15.60
2022-10-22T19:12:26.989Z,15.60
2022-10-22T19:17:30.604Z,15.40
2022-10-22T19:22:34.378Z,15.30
2022-10-22T19:27:38.017Z,15.20
2022-10-22T19:32:42.499Z,15.10
2022-10-22T19:37:48.426Z,15.00
2022-10-22T19:43:07.201Z,14.90
2022-10-22T19:48:12.848Z,14.80
2022-10-22T19:53:16.822Z,14.70
2022-10-22T19:58:19.384Z,14.70
2022-10-22T20:03:21.971Z,14.60
2022-10-22T20:08:25.790Z,14.50
2022-10-22T20:13:28.181Z,14.40
2022-10-22T20:18:30.558Z,14.40
2022-10-22T20:23:34.823Z,14.30
2022-10-22T20:28:38.806Z,14.20
2022-10-22T20:33:41.187Z,14.10
2022-10-22T20:38:45.154Z,14.10
2022-10-22T20:43:48.813Z,14.10
2022-10-22T20:48:52.737Z,14.00
2022-10-22T20:53:57.134Z,14.00
2022-10-22T20:59:00.368Z,13.90
2022-10-22T21:04:02.747Z,13.90
2022-10-22T21:09:08.575Z,13.80
2022-10-22T21:14:13.432Z,13.80
2022-10-22T21:19:16.405Z,13.70
2022-10-22T21:24:21.015Z,13.70
2022-10-22T21:29:23.358Z,13.70
2022-10-22T21:34:25.869Z,13.80
2022-10-22T21:39:30.512Z,13.70
2022-10-22T21:44:33.425Z,13.70
2022-10-22T21:49:35.695Z,13.70
2022-10-22T21:54:39.481Z,13.70
2022-10-22T21:59:41.793Z,13.70
2022-10-22T22:04:44.312Z,13.60
2022-10-22T22:09:49.319Z,13.60
2022-10-22T22:14:51.789Z,13.60
2022-10-22T22:19:54.292Z,13.60
2022-10-22T22:24:57.960Z,13.60
2022-10-22T22:30:00.170Z,13.50
2022-10-22T22:35:02.449Z,13.50
2022-10-22T22:40:07.248Z,13.50
2022-10-22T22:45:09.975Z,13.50
2022-10-22T22:50:12.405Z,13.50
2022-10-22T22:55:16.534Z,13.50
2022-10-22T23:00:19.150Z,13.50
2022-10-22T23:05:21.529Z,13.40
2022-10-22T23:10:25.194Z,13.40
2022-10-22T23:15:27.845Z,13.30
2022-10-22T23:20:30.411Z,13.30
2022-10-22T23:25:34.220Z,13.30
2022-10-22T23:30:42.781Z,13.30
2022-10-22T23:35:45.169Z,13.30
2022-10-22T23:40:54.910Z,13.20
2022-10-22T23:45:57.830Z,13.20
2022-10-22T23:51:05.236Z,13.20
2022-10-22T23:56:10.026Z,13.20
